sensor_id;sensor_type;location;lat;lon;timestamp;P1;P2;P0
79141;PMS5003;68550;-26.480;29.234;2023-07-30T00:00:17;12;10;
79141;PMS5003;68550;-26.480;29.234;2023-07-30T00:02:42;9;9;
79141;PMS5003;68550;-26.480;29.234;2023-07-30T00:05:08;11;11;
79141;PMS5003;68550;-26.480;29.234;2023-07-30T00:07:33;11;10;
79141;PMS5003;68550;-26.480;29.234;2023-07-30T00:09:59;8;8;
79141;PMS5003;68550;-26.480;29.234;2023-07-30T00:12:24;8;8;
79141;PMS5003;68550;-26.480;29.234;2023-07-30T00:14:50;8;8;
79141;PMS5003;68550;-26.480;29.234;2023-07-30T00:19:41;10;10;
79141;PMS5003;68550;-26.480;29.234;2023-07-30T00:22:06;11;9;
79141;PMS5003;68550;-26.480;29.234;2023-07-30T00:26:57;7;7;
79141;PMS5003;68550;-26.480;29.234;2023-07-30T00:34:19;8;7;
79141;PMS5003;68550;-26.480;29.234;2023-07-30T00:36:39;9;9;
79141;PMS5003;68550;-26.480;29.234;2023-07-30T00:39:05;9;9;
79141;PMS5003;68550;-26.480;29.234;2023-07-30T00:48:47;6;6;
79141;PMS5003;68550;-26.480;29.234;2023-07-30T00:51:13;7;7;
79141;PMS5003;68550;-26.480;29.234;2023-07-30T00:53:40;6;6;
79141;PMS5003;68550;-26.480;29.234;2023-07-30T00:56:04;8;7;
79141;PMS5003;68550;-26.480;29.234;2023-07-30T00:58:29;6;6;
79141;PMS5003;68550;-26.480;29.234;2023-07-30T01:03:20;7;6;
79141;PMS5003;68550;-26.480;29.234;2023-07-30T01:05:46;5;5;
79141;PMS5003;68550;-26.480;29.234;2023-07-30T01:08:11;5;5;
79141;PMS5003;68550;-26.480;29.234;2023-07-30T01:15:28;4;4;
79141;PMS5003;68550;-26.480;29.234;2023-07-30T01:17:54;5;5;
79141;PMS5003;68550;-26.480;29.234;2023-07-30T01:20:19;5;5;
79141;PMS5003;68550;-26.480;29.234;2023-07-30T01:22:45;5;5;
79141;PMS5003;68550;-26.480;29.234;2023-07-30T01:25:10;5;5;
79141;PMS5003;68550;-26.480;29.234;2023-07-30T01:27:37;4;4;
79141;PMS5003;68550;-26.480;29.234;2023-07-30T01:30:04;3;3;
79141;PMS5003;68550;-26.480;29.234;2023-07-30T01:44:35;4;4;
79141;PMS5003;68550;-26.480;29.234;2023-07-30T01:47:00;3;3;
79141;PMS5003;68550;-26.480;29.234;2023-07-30T01:49:26;3;3;
79141;PMS5003;68550;-26.480;29.234;2023-07-30T01:51:51;3;3;
79141;PMS5003;68550;-26.480;29.234;2023-07-30T01:59:08;6;6;
79141;PMS5003;68550;-26.480;29.234;2023-07-30T02:01:33;11;10;
79141;PMS5003;68550;-26.480;29.234;2023-07-30T02:06:24;6;6;
79141;PMS5003;68550;-26.480;29.234;2023-07-30T02:16:06;11;11;
79141;PMS5003;68550;-26.480;29.234;2023-07-30T02:25:48;9;9;
79141;PMS5003;68550;-26.480;29.234;2023-07-30T02:28:14;10;10;
79141;PMS5003;68550;-26.480;29.234;2023-07-30T02:33:05;9;8;
79141;PMS5003;68550;-26.480;29.234;2023-07-30T02:37:56;11;10;
79141;PMS5003;68550;-26.480;29.234;2023-07-30T02:40:21;10;10;
79141;PMS5003;68550;-26.480;29.234;2023-07-30T02:42:47;9;9;
79141;PMS5003;68550;-26.480;29.234;2023-07-30T02:45:13;12;11;
79141;PMS5003;68550;-26.480;29.234;2023-07-30T02:47:38;9;9;
79141;PMS5003;68550;-26.480;29.234;2023-07-30T02:50:04;8;8;
79141;PMS5003;68550;-26.480;29.234;2023-07-30T02:59:46;8;8;
79141;PMS5003;68550;-26.480;29.234;2023-07-30T03:02:11;10;10;
79141;PMS5003;68550;-26.480;29.234;2023-07-30T03:04:37;6;6;
79141;PMS5003;68550;-26.480;29.234;2023-07-30T03:07:15;8;8;
79141;PMS5003;68550;-26.480;29.234;2023-07-30T03:09:28;8;8;
79141;PMS5003;68550;-26.480;29.234;2023-07-30T03:11:53;6;6;
79141;PMS5003;68550;-26.480;29.234;2023-07-30T03:16:44;5;5;
79141;PMS5003;68550;-26.480;29.234;2023-07-30T03:19:10;6;6;
79141;PMS5003;68550;-26.480;29.234;2023-07-30T03:21:36;5;5;
79141;PMS5003;68550;-26.480;29.234;2023-07-30T03:24:01;5;5;
79141;PMS5003;68550;-26.480;29.234;2023-07-30T03:26:27;3;3;
79141;PMS5003;68550;-26.480;29.234;2023-07-30T03:31:18;5;5;
79141;PMS5003;68550;-26.480;29.234;2023-07-30T03:33:43;5;5;
79141;PMS5003;68550;-26.480;29.234;2023-07-30T03:36:09;4;4;
79141;PMS5003;68550;-26.480;29.234;2023-07-30T03:38:35;4;4;
79141;PMS5003;68550;-26.480;29.234;2023-07-30T03:50:45;2;2;
79141;PMS5003;68550;-26.480;29.234;2023-07-30T03:53:08;3;3;
79141;PMS5003;68550;-26.480;29.234;2023-07-30T03:55:33;4;4;
79141;PMS5003;68550;-26.480;29.234;2023-07-30T03:57:59;3;3;
79141;PMS5003;68550;-26.480;29.234;2023-07-30T04:00:26;3;3;
79141;PMS5003;68550;-26.480;29.234;2023-07-30T04:02:50;3;3;
79141;PMS5003;68550;-26.480;29.234;2023-07-30T04:07:41;4;4;
79141;PMS5003;68550;-26.480;29.234;2023-07-30T04:12:32;5;4;
79141;PMS5003;68550;-26.480;29.234;2023-07-30T04:14:59;3;3;
79141;PMS5003;68550;-26.480;29.234;2023-07-30T04:22:15;5;5;
79141;PMS5003;68550;-26.480;29.234;2023-07-30T04:24:40;7;7;
79141;PMS5003;68550;-26.480;29.234;2023-07-30T04:27:06;8;8;
79141;PMS5003;68550;-26.480;29.234;2023-07-30T04:29:31;12;12;
79141;PMS5003;68550;-26.480;29.234;2023-07-30T04:31:57;13;13;
79141;PMS5003;68550;-26.480;29.234;2023-07-30T04:36:48;13;12;
79141;PMS5003;68550;-26.480;29.234;2023-07-30T04:39:16;13;12;
79141;PMS5003;68550;-26.480;29.234;2023-07-30T04:48:56;6;6;
79141;PMS5003;68550;-26.480;29.234;2023-07-30T04:51:27;6;6;
79141;PMS5003;68550;-26.480;29.234;2023-07-30T04:53:47;4;4;
79141;PMS5003;68550;-26.480;29.234;2023-07-30T04:56:13;3;3;
79141;PMS5003;68550;-26.480;29.234;2023-07-30T04:58:38;2;2;
79141;PMS5003;68550;-26.480;29.234;2023-07-30T05:01:04;2;2;
79141;PMS5003;68550;-26.480;29.234;2023-07-30T05:03:29;2;1;
79141;PMS5003;68550;-26.480;29.234;2023-07-30T05:08:21;2;2;
79141;PMS5003;68550;-26.480;29.234;2023-07-30T05:10:46;2;2;
79141;PMS5003;68550;-26.480;29.234;2023-07-30T05:25:20;15;13;
79141;PMS5003;68550;-26.480;29.234;2023-07-30T05:27:45;16;15;
79141;PMS5003;68550;-26.480;29.234;2023-07-30T05:30:11;22;20;
79141;PMS5003;68550;-26.480;29.234;2023-07-30T05:32:37;24;23;
79141;PMS5003;68550;-26.480;29.234;2023-07-30T05:42:18;26;25;
79141;PMS5003;68550;-26.480;29.234;2023-07-30T05:44:43;21;19;
79141;PMS5003;68550;-26.480;29.234;2023-07-30T05:49:35;20;19;
79141;PMS5003;68550;-26.480;29.234;2023-07-30T05:54:27;17;17;
79141;PMS5003;68550;-26.480;29.234;2023-07-30T05:56:50;22;22;
79141;PMS5003;68550;-26.480;29.234;2023-07-30T05:59:16;20;20;
79141;PMS5003;68550;-26.480;29.234;2023-07-30T06:01:42;23;22;
79141;PMS5003;68550;-26.480;29.234;2023-07-30T06:04:07;28;24;
79141;PMS5003;68550;-26.480;29.234;2023-07-30T06:08:58;34;34;
79141;PMS5003;68550;-26.480;29.234;2023-07-30T06:11:26;31;30;
79141;PMS5003;68550;-26.480;29.234;2023-07-30T06:13:50;36;35;
79141;PMS5003;68550;-26.480;29.234;2023-07-30T06:16:16;49;48;
79141;PMS5003;68550;-26.480;29.234;2023-07-30T06:18:41;40;40;
79141;PMS5003;68550;-26.480;29.234;2023-07-30T06:25:57;72;68;
79141;PMS5003;68550;-26.480;29.234;2023-07-30T06:28:23;70;66;
79141;PMS5003;68550;-26.480;29.234;2023-07-30T06:30:50;73;68;
79141;PMS5003;68550;-26.480;29.234;2023-07-30T06:33:17;64;62;
79141;PMS5003;68550;-26.480;29.234;2023-07-30T06:35:49;73;70;
79141;PMS5003;68550;-26.480;29.234;2023-07-30T06:38:09;63;61;
79141;PMS5003;68550;-26.480;29.234;2023-07-30T06:40:31;51;49;
79141;PMS5003;68550;-26.480;29.234;2023-07-30T06:42:58;63;54;
79141;PMS5003;68550;-26.480;29.234;2023-07-30T06:45:22;46;44;
79141;PMS5003;68550;-26.480;29.234;2023-07-30T06:47:48;47;45;
79141;PMS5003;68550;-26.480;29.234;2023-07-30T06:50:13;39;38;
79141;PMS5003;68550;-26.480;29.234;2023-07-30T06:52:38;50;49;
79141;PMS5003;68550;-26.480;29.234;2023-07-30T06:55:04;50;47;
79141;PMS5003;68550;-26.480;29.234;2023-07-30T06:57:30;60;57;
79141;PMS5003;68550;-26.480;29.234;2023-07-30T06:59:54;81;78;
79141;PMS5003;68550;-26.480;29.234;2023-07-30T07:02:20;50;46;
79141;PMS5003;68550;-26.480;29.234;2023-07-30T07:04:45;32;30;
79141;PMS5003;68550;-26.480;29.234;2023-07-30T07:21:43;25;24;
79141;PMS5003;68550;-26.480;29.234;2023-07-30T07:24:08;33;30;
79141;PMS5003;68550;-26.480;29.234;2023-07-30T07:26:38;33;33;
79141;PMS5003;68550;-26.480;29.234;2023-07-30T07:29:02;29;28;
79141;PMS5003;68550;-26.480;29.234;2023-07-30T07:31:26;24;24;
79141;PMS5003;68550;-26.480;29.234;2023-07-30T07:34:01;30;28;
79141;PMS5003;68550;-26.480;29.234;2023-07-30T07:36:15;20;19;
79141;PMS5003;68550;-26.480;29.234;2023-07-30T07:38:41;24;23;
79141;PMS5003;68550;-26.480;29.234;2023-07-30T07:41:06;19;18;
79141;PMS5003;68550;-26.480;29.234;2023-07-30T07:43:31;25;25;
79141;PMS5003;68550;-26.480;29.234;2023-07-30T07:45:59;23;23;
79141;PMS5003;68550;-26.480;29.234;2023-07-30T07:48:22;22;21;
79141;PMS5003;68550;-26.480;29.234;2023-07-30T07:53:13;18;17;
79141;PMS5003;68550;-26.480;29.234;2023-07-30T07:55:38;16;15;
79141;PMS5003;68550;-26.480;29.234;2023-07-30T07:58:03;33;31;
79141;PMS5003;68550;-26.480;29.234;2023-07-30T08:00:30;34;32;
79141;PMS5003;68550;-26.480;29.234;2023-07-30T08:02:54;28;28;
79141;PMS5003;68550;-26.480;29.234;2023-07-30T08:05:20;27;26;
79141;PMS5003;68550;-26.480;29.234;2023-07-30T08:10:11;20;19;
79141;PMS5003;68550;-26.480;29.234;2023-07-30T08:12:37;25;25;
79141;PMS5003;68550;-26.480;29.234;2023-07-30T08:15:02;22;22;
79141;PMS5003;68550;-26.480;29.234;2023-07-30T08:17:27;24;22;
79141;PMS5003;68550;-26.480;29.234;2023-07-30T08:19:53;28;27;
79141;PMS5003;68550;-26.480;29.234;2023-07-30T08:22:19;27;26;
79141;PMS5003;68550;-26.480;29.234;2023-07-30T08:24:48;24;24;
79141;PMS5003;68550;-26.480;29.234;2023-07-30T08:27:10;22;20;
79141;PMS5003;68550;-26.480;29.234;2023-07-30T08:29:37;17;15;
79141;PMS5003;68550;-26.480;29.234;2023-07-30T08:32:04;17;17;
79141;PMS5003;68550;-26.480;29.234;2023-07-30T08:34:29;20;20;
79141;PMS5003;68550;-26.480;29.234;2023-07-30T08:36:52;19;17;
79141;PMS5003;68550;-26.480;29.234;2023-07-30T08:39:22;15;15;
79141;PMS5003;68550;-26.480;29.234;2023-07-30T08:41:46;18;18;
79141;PMS5003;68550;-26.480;29.234;2023-07-30T08:44:08;16;14;
79141;PMS5003;68550;-26.480;29.234;2023-07-30T08:46:33;16;15;
79141;PMS5003;68550;-26.480;29.234;2023-07-30T08:49:04;11;11;
79141;PMS5003;68550;-26.480;29.234;2023-07-30T08:51:24;15;14;
79141;PMS5003;68550;-26.480;29.234;2023-07-30T08:53:50;14;13;
79141;PMS5003;68550;-26.480;29.234;2023-07-30T08:56:15;11;10;
79141;PMS5003;68550;-26.480;29.234;2023-07-30T08:58:41;11;10;
79141;PMS5003;68550;-26.480;29.234;2023-07-30T09:01:08;10;10;
79141;PMS5003;68550;-26.480;29.234;2023-07-30T09:10:48;10;10;
79141;PMS5003;68550;-26.480;29.234;2023-07-30T09:13:14;12;11;
79141;PMS5003;68550;-26.480;29.234;2023-07-30T09:15:39;10;10;
79141;PMS5003;68550;-26.480;29.234;2023-07-30T09:18:05;10;9;
79141;PMS5003;68550;-26.480;29.234;2023-07-30T09:22:58;9;9;
79141;PMS5003;68550;-26.480;29.234;2023-07-30T09:35:05;5;5;
79141;PMS5003;68550;-26.480;29.234;2023-07-30T09:37:29;7;7;
79141;PMS5003;68550;-26.480;29.234;2023-07-30T09:39:58;5;5;
79141;PMS5003;68550;-26.480;29.234;2023-07-30T09:42:19;8;8;
79141;PMS5003;68550;-26.480;29.234;2023-07-30T09:44:46;8;7;
79141;PMS5003;68550;-26.480;29.234;2023-07-30T09:47:10;24;22;
79141;PMS5003;68550;-26.480;29.234;2023-07-30T09:59:17;72;67;
79141;PMS5003;68550;-26.480;29.234;2023-07-30T10:01:43;63;57;
79141;PMS5003;68550;-26.480;29.234;2023-07-30T10:04:08;58;55;
79141;PMS5003;68550;-26.480;29.234;2023-07-30T10:06:35;48;47;
79141;PMS5003;68550;-26.480;29.234;2023-07-30T10:08:59;52;50;
79141;PMS5003;68550;-26.480;29.234;2023-07-30T10:11:26;50;48;
79141;PMS5003;68550;-26.480;29.234;2023-07-30T10:13:51;41;38;
79141;PMS5003;68550;-26.480;29.234;2023-07-30T10:16:17;39;39;
79141;PMS5003;68550;-26.480;29.234;2023-07-30T10:18:42;39;37;
79141;PMS5003;68550;-26.480;29.234;2023-07-30T10:21:08;41;39;
79141;PMS5003;68550;-26.480;29.234;2023-07-30T10:23:33;34;32;
79141;PMS5003;68550;-26.480;29.234;2023-07-30T10:25:58;38;36;
79141;PMS5003;68550;-26.480;29.234;2023-07-30T10:28:27;30;26;
79141;PMS5003;68550;-26.480;29.234;2023-07-30T10:33:15;28;28;
79141;PMS5003;68550;-26.480;29.234;2023-07-30T10:35:41;32;28;
79141;PMS5003;68550;-26.480;29.234;2023-07-30T10:38:14;26;23;
79141;PMS5003;68550;-26.480;29.234;2023-07-30T10:40:31;25;25;
79141;PMS5003;68550;-26.480;29.234;2023-07-30T10:42:57;23;20;
79141;PMS5003;68550;-26.480;29.234;2023-07-30T10:45:25;24;22;
79141;PMS5003;68550;-26.480;29.234;2023-07-30T10:47:47;21;20;
79141;PMS5003;68550;-26.480;29.234;2023-07-30T10:50:13;17;16;
79141;PMS5003;68550;-26.480;29.234;2023-07-30T10:52:38;23;22;
79141;PMS5003;68550;-26.480;29.234;2023-07-30T10:55:04;19;17;
79141;PMS5003;68550;-26.480;29.234;2023-07-30T10:57:33;19;16;
79141;PMS5003;68550;-26.480;29.234;2023-07-30T10:59:55;15;14;
79141;PMS5003;68550;-26.480;29.234;2023-07-30T11:02:21;14;13;
79141;PMS5003;68550;-26.480;29.234;2023-07-30T11:04:46;16;16;
79141;PMS5003;68550;-26.480;29.234;2023-07-30T11:07:12;11;11;
79141;PMS5003;68550;-26.480;29.234;2023-07-30T11:09:38;14;13;
79141;PMS5003;68550;-26.480;29.234;2023-07-30T11:12:03;18;18;
79141;PMS5003;68550;-26.480;29.234;2023-07-30T11:14:28;20;18;
79141;PMS5003;68550;-26.480;29.234;2023-07-30T11:16:54;19;16;
79141;PMS5003;68550;-26.480;29.234;2023-07-30T11:19:19;18;16;
79141;PMS5003;68550;-26.480;29.234;2023-07-30T11:21:45;13;12;
79141;PMS5003;68550;-26.480;29.234;2023-07-30T11:24:10;14;12;
79141;PMS5003;68550;-26.480;29.234;2023-07-30T11:26:36;13;12;
79141;PMS5003;68550;-26.480;29.234;2023-07-30T11:29:01;11;11;
79141;PMS5003;68550;-26.480;29.234;2023-07-30T11:31:26;11;11;
79141;PMS5003;68550;-26.480;29.234;2023-07-30T11:33:52;11;10;
79141;PMS5003;68550;-26.480;29.234;2023-07-30T11:36:18;12;11;
79141;PMS5003;68550;-26.480;29.234;2023-07-30T11:38:43;9;8;
79141;PMS5003;68550;-26.480;29.234;2023-07-30T11:41:08;11;11;
79141;PMS5003;68550;-26.480;29.234;2023-07-30T11:43:35;11;9;
79141;PMS5003;68550;-26.480;29.234;2023-07-30T11:48:24;9;8;
79141;PMS5003;68550;-26.480;29.234;2023-07-30T12:07:48;6;6;
79141;PMS5003;68550;-26.480;29.234;2023-07-30T12:10:14;6;5;
79141;PMS5003;68550;-26.480;29.234;2023-07-30T12:12:43;9;8;
79141;PMS5003;68550;-26.480;29.234;2023-07-30T12:15:10;8;7;
79141;PMS5003;68550;-26.480;29.234;2023-07-30T12:17:33;7;5;
79141;PMS5003;68550;-26.480;29.234;2023-07-30T12:20:06;6;5;
79141;PMS5003;68550;-26.480;29.234;2023-07-30T12:22:22;5;5;
79141;PMS5003;68550;-26.480;29.234;2023-07-30T12:24:47;5;5;
79141;PMS5003;68550;-26.480;29.234;2023-07-30T12:27:13;5;4;
79141;PMS5003;68550;-26.480;29.234;2023-07-30T12:29:38;4;4;
79141;PMS5003;68550;-26.480;29.234;2023-07-30T12:32:04;7;5;
79141;PMS5003;68550;-26.480;29.234;2023-07-30T12:37:06;9;9;
79141;PMS5003;68550;-26.480;29.234;2023-07-30T12:39:20;7;7;
79141;PMS5003;68550;-26.480;29.234;2023-07-30T12:41:46;9;7;
79141;PMS5003;68550;-26.480;29.234;2023-07-30T12:44:12;5;5;
79141;PMS5003;68550;-26.480;29.234;2023-07-30T12:46:37;4;4;
79141;PMS5003;68550;-26.480;29.234;2023-07-30T12:49:02;5;4;
79141;PMS5003;68550;-26.480;29.234;2023-07-30T12:51:28;3;3;
79141;PMS5003;68550;-26.480;29.234;2023-07-30T12:53:54;4;4;
79141;PMS5003;68550;-26.480;29.234;2023-07-30T12:56:21;4;4;
79141;PMS5003;68550;-26.480;29.234;2023-07-30T12:58:45;5;5;
79141;PMS5003;68550;-26.480;29.234;2023-07-30T13:01:11;4;3;
79141;PMS5003;68550;-26.480;29.234;2023-07-30T13:03:38;3;2;
79141;PMS5003;68550;-26.480;29.234;2023-07-30T13:06:02;5;3;
79141;PMS5003;68550;-26.480;29.234;2023-07-30T13:08:30;2;1;
79141;PMS5003;68550;-26.480;29.234;2023-07-30T13:10:52;4;4;
79141;PMS5003;68550;-26.480;29.234;2023-07-30T13:13:22;4;3;
79141;PMS5003;68550;-26.480;29.234;2023-07-30T13:15:46;4;3;
79141;PMS5003;68550;-26.480;29.234;2023-07-30T13:18:12;3;3;
79141;PMS5003;68550;-26.480;29.234;2023-07-30T13:20:36;4;3;
79141;PMS5003;68550;-26.480;29.234;2023-07-30T13:23:03;5;4;
79141;PMS5003;68550;-26.480;29.234;2023-07-30T13:25:26;3;3;
79141;PMS5003;68550;-26.480;29.234;2023-07-30T13:27:53;1;1;
79141;PMS5003;68550;-26.480;29.234;2023-07-30T13:30:16;2;2;
79141;PMS5003;68550;-26.480;29.234;2023-07-30T13:32:42;3;3;
79141;PMS5003;68550;-26.480;29.234;2023-07-30T13:35:11;4;3;
79141;PMS5003;68550;-26.480;29.234;2023-07-30T13:37:33;3;3;
79141;PMS5003;68550;-26.480;29.234;2023-07-30T13:39:59;2;2;
79141;PMS5003;68550;-26.480;29.234;2023-07-30T13:42:26;3;3;
79141;PMS5003;68550;-26.480;29.234;2023-07-30T13:44:50;3;3;
79141;PMS5003;68550;-26.480;29.234;2023-07-30T13:47:15;3;2;
79141;PMS5003;68550;-26.480;29.234;2023-07-30T13:49:41;2;2;
79141;PMS5003;68550;-26.480;29.234;2023-07-30T13:52:10;2;2;
79141;PMS5003;68550;-26.480;29.234;2023-07-30T13:54:36;2;2;
79141;PMS5003;68550;-26.480;29.234;2023-07-30T13:57:03;3;3;
79141;PMS5003;68550;-26.480;29.234;2023-07-30T13:59:23;2;2;
79141;PMS5003;68550;-26.480;29.234;2023-07-30T14:01:54;1;1;
79141;PMS5003;68550;-26.480;29.234;2023-07-30T14:04:16;2;2;
79141;PMS5003;68550;-26.480;29.234;2023-07-30T14:06:42;2;2;
79141;PMS5003;68550;-26.480;29.234;2023-07-30T14:09:07;1;1;
79141;PMS5003;68550;-26.480;29.234;2023-07-30T14:11:33;1;0;
79141;PMS5003;68550;-26.480;29.234;2023-07-30T14:14:00;2;2;
79141;PMS5003;68550;-26.480;29.234;2023-07-30T14:16:23;1;1;
79141;PMS5003;68550;-26.480;29.234;2023-07-30T14:18:48;0;0;
79141;PMS5003;68550;-26.480;29.234;2023-07-30T14:21:19;2;2;
79141;PMS5003;68550;-26.480;29.234;2023-07-30T14:23:40;9;7;
79141;PMS5003;68550;-26.480;29.234;2023-07-30T14:26:07;34;27;
79141;PMS5003;68550;-26.480;29.234;2023-07-30T14:28:35;22;15;
79141;PMS5003;68550;-26.480;29.234;2023-07-30T14:31:00;10;9;
79141;PMS5003;68550;-26.480;29.234;2023-07-30T14:33:21;11;8;
79141;PMS5003;68550;-26.480;29.234;2023-07-30T14:35:48;14;8;
79141;PMS5003;68550;-26.480;29.234;2023-07-30T14:38:13;12;10;
79141;PMS5003;68550;-26.480;29.234;2023-07-30T14:40:42;8;7;
79141;PMS5003;68550;-26.480;29.234;2023-07-30T14:45:30;5;5;
79141;PMS5003;68550;-26.480;29.234;2023-07-30T14:47:53;7;6;
79141;PMS5003;68550;-26.480;29.234;2023-07-30T14:52:53;6;5;
79141;PMS5003;68550;-26.480;29.234;2023-07-30T14:55:09;6;6;
79141;PMS5003;68550;-26.480;29.234;2023-07-30T14:57:34;7;6;
79141;PMS5003;68550;-26.480;29.234;2023-07-30T14:59:59;9;7;
79141;PMS5003;68550;-26.480;29.234;2023-07-30T15:02:27;4;4;
79141;PMS5003;68550;-26.480;29.234;2023-07-30T15:04:50;12;8;
79141;PMS5003;68550;-26.480;29.234;2023-07-30T15:07:16;6;4;
79141;PMS5003;68550;-26.480;29.234;2023-07-30T15:19:25;8;7;
79141;PMS5003;68550;-26.480;29.234;2023-07-30T15:21:52;8;8;
79141;PMS5003;68550;-26.480;29.234;2023-07-30T15:24:14;7;6;
79141;PMS5003;68550;-26.480;29.234;2023-07-30T15:26:43;7;7;
79141;PMS5003;68550;-26.480;29.234;2023-07-30T15:29:05;6;5;
79141;PMS5003;68550;-26.480;29.234;2023-07-30T15:31:35;6;5;
79141;PMS5003;68550;-26.480;29.234;2023-07-30T15:34:00;9;6;
79141;PMS5003;68550;-26.480;29.234;2023-07-30T15:36:25;8;7;
79141;PMS5003;68550;-26.480;29.234;2023-07-30T15:38:50;5;5;
79141;PMS5003;68550;-26.480;29.234;2023-07-30T15:41:13;7;7;
79141;PMS5003;68550;-26.480;29.234;2023-07-30T15:43:40;6;6;
79141;PMS5003;68550;-26.480;29.234;2023-07-30T15:46:06;6;5;
79141;PMS5003;68550;-26.480;29.234;2023-07-30T15:48:30;4;4;
79141;PMS5003;68550;-26.480;29.234;2023-07-30T15:50:59;7;7;
79141;PMS5003;68550;-26.480;29.234;2023-07-30T15:53:25;8;8;
79141;PMS5003;68550;-26.480;29.234;2023-07-30T15:58:13;7;6;
79141;PMS5003;68550;-26.480;29.234;2023-07-30T16:20:02;11;9;
79141;PMS5003;68550;-26.480;29.234;2023-07-30T16:22:27;13;12;
79141;PMS5003;68550;-26.480;29.234;2023-07-30T16:29:55;13;13;
79141;PMS5003;68550;-26.480;29.234;2023-07-30T16:46:43;12;12;
79141;PMS5003;68550;-26.480;29.234;2023-07-30T16:51:37;13;12;
79141;PMS5003;68550;-26.480;29.234;2023-07-30T16:54:02;15;14;
79141;PMS5003;68550;-26.480;29.234;2023-07-30T16:58:48;17;14;
79141;PMS5003;68550;-26.480;29.234;2023-07-30T17:01:13;20;19;
79141;PMS5003;68550;-26.480;29.234;2023-07-30T17:03:39;13;13;
79141;PMS5003;68550;-26.480;29.234;2023-07-30T17:06:05;16;16;
79141;PMS5003;68550;-26.480;29.234;2023-07-30T17:13:21;22;22;
79141;PMS5003;68550;-26.480;29.234;2023-07-30T17:15:49;17;17;
79141;PMS5003;68550;-26.480;29.234;2023-07-30T17:18:12;18;18;
79141;PMS5003;68550;-26.480;29.234;2023-07-30T17:20:38;22;22;
79141;PMS5003;68550;-26.480;29.234;2023-07-30T17:28:06;23;23;
79141;PMS5003;68550;-26.480;29.234;2023-07-30T17:35:21;28;28;
79141;PMS5003;68550;-26.480;29.234;2023-07-30T17:37:36;28;26;
79141;PMS5003;68550;-26.480;29.234;2023-07-30T17:40:02;25;24;
79141;PMS5003;68550;-26.480;29.234;2023-07-30T17:42:27;24;24;
79141;PMS5003;68550;-26.480;29.234;2023-07-30T17:44:53;27;26;
79141;PMS5003;68550;-26.480;29.234;2023-07-30T17:57:00;35;32;
79141;PMS5003;68550;-26.480;29.234;2023-07-30T18:01:50;41;38;
79141;PMS5003;68550;-26.480;29.234;2023-07-30T18:04:18;31;30;
79141;PMS5003;68550;-26.480;29.234;2023-07-30T18:06:41;31;28;
79141;PMS5003;68550;-26.480;29.234;2023-07-30T18:09:16;25;25;
79141;PMS5003;68550;-26.480;29.234;2023-07-30T18:13:57;32;30;
79141;PMS5003;68550;-26.480;29.234;2023-07-30T18:16:29;37;35;
79141;PMS5003;68550;-26.480;29.234;2023-07-30T18:18:48;32;30;
79141;PMS5003;68550;-26.480;29.234;2023-07-30T18:21:13;25;24;
79141;PMS5003;68550;-26.480;29.234;2023-07-30T18:23:46;24;24;
79141;PMS5003;68550;-26.480;29.234;2023-07-30T18:26:10;24;23;
79141;PMS5003;68550;-26.480;29.234;2023-07-30T18:30:56;22;22;
79141;PMS5003;68550;-26.480;29.234;2023-07-30T18:40:41;17;16;
79141;PMS5003;68550;-26.480;29.234;2023-07-30T18:43:04;17;17;
79141;PMS5003;68550;-26.480;29.234;2023-07-30T18:45:31;15;14;
79141;PMS5003;68550;-26.480;29.234;2023-07-30T19:00:03;16;15;
79141;PMS5003;68550;-26.480;29.234;2023-07-30T19:06:54;16;15;
79141;PMS5003;68550;-26.480;29.234;2023-07-30T19:09:20;17;15;
79141;PMS5003;68550;-26.480;29.234;2023-07-30T19:11:45;15;13;
79141;PMS5003;68550;-26.480;29.234;2023-07-30T19:19:02;14;14;
79141;PMS5003;68550;-26.480;29.234;2023-07-30T19:21:27;18;17;
79141;PMS5003;68550;-26.480;29.234;2023-07-30T19:23:53;16;14;
79141;PMS5003;68550;-26.480;29.234;2023-07-30T19:26:18;17;15;
79141;PMS5003;68550;-26.480;29.234;2023-07-30T19:28:43;17;15;
79141;PMS5003;68550;-26.480;29.234;2023-07-30T19:31:09;15;15;
79141;PMS5003;68550;-26.480;29.234;2023-07-30T19:33:35;16;14;
79141;PMS5003;68550;-26.480;29.234;2023-07-30T19:36:00;14;14;
79141;PMS5003;68550;-26.480;29.234;2023-07-30T19:38:25;19;18;
79141;PMS5003;68550;-26.480;29.234;2023-07-30T19:40:54;20;19;
79141;PMS5003;68550;-26.480;29.234;2023-07-30T20:02:38;18;17;
79141;PMS5003;68550;-26.480;29.234;2023-07-30T20:05:06;15;14;
79141;PMS5003;68550;-26.480;29.234;2023-07-30T20:07:29;14;14;
79141;PMS5003;68550;-26.480;29.234;2023-07-30T20:09:56;14;14;
79141;PMS5003;68550;-26.480;29.234;2023-07-30T20:12:20;15;14;
79141;PMS5003;68550;-26.480;29.234;2023-07-30T20:14:46;17;15;
79141;PMS5003;68550;-26.480;29.234;2023-07-30T20:17:11;14;13;
79141;PMS5003;68550;-26.480;29.234;2023-07-30T20:19:36;16;15;
79141;PMS5003;68550;-26.480;29.234;2023-07-30T20:22:04;14;14;
79141;PMS5003;68550;-26.480;29.234;2023-07-30T20:24:28;14;13;
79141;PMS5003;68550;-26.480;29.234;2023-07-30T20:26:53;16;16;
79141;PMS5003;68550;-26.480;29.234;2023-07-30T20:29:18;18;15;
79141;PMS5003;68550;-26.480;29.234;2023-07-30T20:31:44;14;14;
79141;PMS5003;68550;-26.480;29.234;2023-07-30T20:34:10;13;12;
79141;PMS5003;68550;-26.480;29.234;2023-07-30T20:36:35;12;12;
79141;PMS5003;68550;-26.480;29.234;2023-07-30T20:39:00;12;11;
79141;PMS5003;68550;-26.480;29.234;2023-07-30T20:41:26;13;13;
79141;PMS5003;68550;-26.480;29.234;2023-07-30T20:43:51;12;11;
79141;PMS5003;68550;-26.480;29.234;2023-07-30T20:46:17;11;11;
79141;PMS5003;68550;-26.480;29.234;2023-07-30T20:48:42;12;12;
79141;PMS5003;68550;-26.480;29.234;2023-07-30T20:51:08;12;11;
79141;PMS5003;68550;-26.480;29.234;2023-07-30T20:53:33;12;12;
79141;PMS5003;68550;-26.480;29.234;2023-07-30T20:55:58;13;12;
79141;PMS5003;68550;-26.480;29.234;2023-07-30T20:58:24;14;11;
79141;PMS5003;68550;-26.480;29.234;2023-07-30T21:00:49;11;11;
79141;PMS5003;68550;-26.480;29.234;2023-07-30T21:08:43;10;9;
79141;PMS5003;68550;-26.480;29.234;2023-07-30T21:11:09;10;9;
79141;PMS5003;68550;-26.480;29.234;2023-07-30T21:13:35;9;7;
79141;PMS5003;68550;-26.480;29.234;2023-07-30T21:16:00;8;7;
79141;PMS5003;68550;-26.480;29.234;2023-07-30T21:18:25;9;8;
79141;PMS5003;68550;-26.480;29.234;2023-07-30T21:20:51;8;8;
79141;PMS5003;68550;-26.480;29.234;2023-07-30T21:23:16;10;10;
79141;PMS5003;68550;-26.480;29.234;2023-07-30T21:25:42;9;9;
79141;PMS5003;68550;-26.480;29.234;2023-07-30T21:28:08;8;8;
79141;PMS5003;68550;-26.480;29.234;2023-07-30T21:30:33;9;8;
79141;PMS5003;68550;-26.480;29.234;2023-07-30T21:32:59;7;7;
79141;PMS5003;68550;-26.480;29.234;2023-07-30T21:35:24;9;9;
79141;PMS5003;68550;-26.480;29.234;2023-07-30T21:37:50;8;8;
79141;PMS5003;68550;-26.480;29.234;2023-07-30T21:40:15;8;7;
79141;PMS5003;68550;-26.480;29.234;2023-07-30T21:42:40;7;7;